Time;durP1;ratioP1;P1;durP2;ratioP2;P2;SDS_P1;SDS_P2;PMS_P1;PMS_P2;Temp;Humidity;BMP_temperature;BMP_pressure;BME280_temperature;BME280_humidity;BME280_pressure;Samples;Min_cycle;Max_cycle;Signal;HPM_P1;HPM_P2
2022/11/15 00:01:17;;;;;;;;;;;8.10;70.60;;;3.19;100.00;95421.22;5011155;28;19991;-51
2022/11/15 00:03:51;;;;;;;;;;;8.10;70.70;;;3.19;100.00;95420.44;5018235;28;19916;-53
2022/11/15 00:06:17;;;;;;;;;;;8.00;70.70;;;3.13;100.00;95416.06;5010291;28;19909;-50
2022/11/15 00:08:46;;;;;;;;;;;8.00;70.70;;;3.10;100.00;95419.13;5012053;28;19966;-55
2022/11/15 00:11:12;;;;;;;;;;;8.00;70.70;;;2.97;100.00;95414.84;5029533;28;20063;-54
2022/11/15 00:13:38;;;;;;;;;;;7.90;70.60;;;2.97;100.00;95418.25;4995356;28;19908;-53
2022/11/15 00:16:05;;;;;;;;;;;7.90;70.70;;;2.98;100.00;95409.34;5027484;28;19912;-55
2022/11/15 00:18:32;;;;;;;;;;;7.80;70.60;;;2.96;100.00;95405.34;5009325;28;20387;-56
2022/11/15 00:21:10;;;;;;;;;;;7.80;70.70;;;2.92;100.00;95404.97;4993901;28;19916;-54
2022/11/15 00:23:37;;;;;;;;;;;7.80;70.70;;;2.86;100.00;95412.94;5011047;28;20007;-54
2022/11/15 00:26:03;;;;;;;;;;;7.70;70.70;;;2.84;100.00;95407.91;5013972;28;19912;-54
2022/11/15 00:28:31;;;;;;;;;;;7.70;70.70;;;2.84;100.00;95401.84;5017817;28;20424;-53
2022/11/15 00:31:07;;;;;;;;;;;7.70;70.80;;;2.83;100.00;95400.25;5009892;28;20296;-53
2022/11/15 00:33:36;;;;;;;;;;;7.70;70.90;;;2.84;100.00;95399.19;5012061;28;19908;-53
2022/11/15 00:36:12;;;;;;;;;;;7.60;70.90;;;2.88;100.00;95400.34;5009376;28;19924;-54
2022/11/15 00:38:40;;;;;;;;;;;7.60;71.00;;;2.86;100.00;95395.34;4991771;28;19924;-53
2022/11/15 00:41:08;;;;;;;;;;;7.70;71.10;;;2.85;100.00;95392.91;5013178;28;19935;-53
2022/11/15 00:43:34;;;;;;;;;;;7.70;71.20;;;2.89;100.00;95384.38;5013647;28;19958;-53
2022/11/15 00:46:08;;;;;;;;;;;7.70;71.30;;;2.94;100.00;95378.44;5013143;28;20268;-51
2022/11/15 00:48:37;;;;;;;;;;;7.70;71.40;;;3.00;100.00;95370.44;5014333;28;19916;-51
2022/11/15 00:51:03;;;;;;;;;;;7.70;71.50;;;3.07;100.00;95365.13;5009017;28;19944;-51
2022/11/15 00:53:31;;;;;;;;;;;7.80;72.40;;;3.17;100.00;95367.22;5013730;28;19959;-53
2022/11/15 00:56:00;;;;;;;;;;;7.80;71.70;;;3.22;100.00;95367.34;5013775;28;19909;-52
2022/11/15 00:58:31;;;;;;;;;;;7.90;71.80;;;3.27;100.00;95371.94;5006993;28;20664;-52
2022/11/15 01:01:07;;;;;;;;;;;8.00;71.80;;;3.33;100.00;95371.84;4995101;28;20275;-54
2022/11/15 01:03:38;;;;;;;;;;;8.10;71.80;;;3.39;100.00;95385.97;5025430;28;20265;-53
2022/11/15 01:06:04;;;;;;;;;;;8.10;71.80;;;3.42;100.00;95385.50;5013162;28;19919;-53
2022/11/15 01:08:31;;;;;;;;;;;8.20;71.70;;;3.46;100.00;95398.00;5013527;28;19971;-51
2022/11/15 01:11:07;;;;;;;;;;;8.30;71.70;;;3.53;100.00;95386.56;5014591;28;19913;-52
2022/11/15 01:13:35;;;;;;;;;;;8.40;71.70;;;3.62;100.00;95387.84;5013092;28;19981;-55
2022/11/15 01:16:30;;;;;;;;;;;8.40;71.60;;;3.66;100.00;95381.09;4997530;28;19909;-52
2022/11/15 01:18:56;;;;;;;;;;;8.50;71.60;;;3.71;100.00;95387.31;4975882;28;20028;-53
2022/11/15 01:21:21;;;;;;;;;;;8.60;71.50;;;3.75;100.00;95390.28;5006993;28;20012;-54
2022/11/15 01:23:47;;;;;;;;;;;8.60;71.50;;;3.81;100.00;95376.22;5012868;28;19941;-53
2022/11/15 01:26:15;;;;;;;;;;;8.60;71.50;;;3.88;100.00;95371.63;5008546;28;20276;-48
2022/11/15 01:28:42;;;;;;;;;;;8.60;71.50;;;3.92;100.00;95367.53;4998230;28;19920;-54
2022/11/15 01:31:16;;;;;;;;;;;8.70;71.50;;;3.97;100.00;95366.81;5009319;28;20007;-51
2022/11/15 01:33:57;;;;;;;;;;;8.80;71.50;;;4.00;100.00;95357.66;5009122;28;19944;-54
2022/11/15 01:36:23;;;;;;;;;;;8.80;71.50;;;4.05;100.00;95358.59;5029252;28;20303;-54
2022/11/15 01:38:59;;;;;;;;;;;8.90;71.50;;;4.11;100.00;95355.03;5014682;28;20248;-55
2022/11/15 01:41:33;;;;;;;;;;;8.90;71.50;;;4.15;100.00;95350.91;5016120;28;19952;-52
2022/11/15 01:44:30;;;;;;;;;;;8.90;71.50;;;4.23;100.00;95341.88;5015185;28;19912;-51
2022/11/15 01:46:58;;;;;;;;;;;9.00;71.50;;;4.29;100.00;95346.19;5015748;28;20012;-50
2022/11/15 01:49:31;;;;;;;;;;;9.00;71.50;;;4.30;100.00;95347.81;5013284;28;19924;-53
2022/11/15 01:51:58;;;;;;;;;;;9.00;71.50;;;4.28;100.00;95341.16;5030256;28;19919;-53
2022/11/15 01:54:26;;;;;;;;;;;9.00;71.40;;;4.27;100.00;95337.72;5015614;28;19915;-51
2022/11/15 01:57:13;;;;;;;;;;;9.00;71.40;;;4.29;100.00;95340.91;5001665;28;19912;-53
2022/11/15 01:59:44;;;;;;;;;;;9.00;71.30;;;4.31;100.00;95322.25;5001750;28;19909;-51
2022/11/15 02:02:15;;;;;;;;;;;9.10;72.20;;;4.34;100.00;95322.59;5015011;28;20011;-50
2022/11/15 02:04:46;;;;;;;;;;;9.10;71.50;;;4.36;100.00;95320.53;5026150;28;19909;-52
2022/11/15 02:07:19;;;;;;;;;;;9.20;71.50;;;4.41;100.00;95320.59;5012379;28;19991;-53
2022/11/15 02:09:46;;;;;;;;;;;9.20;71.50;;;4.44;100.00;95319.34;5027510;28;19920;-54
2022/11/15 02:12:21;;;;;;;;;;;9.20;71.50;;;4.48;100.00;95311.78;4999097;28;19909;-50
2022/11/15 02:15:08;;;;;;;;;;;9.20;71.50;;;4.48;100.00;95304.69;5014367;28;20023;-49
2022/11/15 02:18:11;;;;;;;;;;;9.30;71.40;;;4.50;100.00;95297.31;5015416;28;20043;-54
2022/11/15 02:20:47;;;;;;;;;;;9.30;71.40;;;4.56;100.00;95304.31;5030690;28;19953;-50
2022/11/15 02:24:10;;;;;;;;;;;9.40;71.50;;;4.60;100.00;95304.63;5031748;28;19909;-48
2022/11/15 02:27:23;;;;;;;;;;;9.40;71.50;;;4.62;100.00;95303.38;5008069;28;19924;-52
2022/11/15 02:30:18;;;;;;;;;;;9.40;71.50;;;4.66;100.00;95308.19;5020855;28;20290;-54
2022/11/15 02:33:34;;;;;;;;;;;9.50;71.50;;;4.69;100.00;95307.72;5014297;28;19916;-50
2022/11/15 02:36:21;;;;;;;;;;;9.50;71.50;;;4.72;100.00;95292.22;5014806;28;20386;-52
2022/11/15 02:39:01;;;;;;;;;;;9.50;71.50;;;4.77;100.00;95292.31;5010464;28;19916;-52
2022/11/15 02:41:39;;;;;;;;;;;9.60;71.50;;;4.80;100.00;95293.69;5011803;28;19913;-53
2022/11/15 02:44:20;;;;;;;;;;;9.60;71.50;;;4.82;100.00;95296.88;5029936;28;19916;-50
2022/11/15 02:47:20;;;;;;;;;;;9.60;71.40;;;4.81;100.00;95303.22;5023765;28;20342;-52
2022/11/15 02:49:58;;;;;;;;;;;9.60;71.30;;;4.84;100.00;95300.91;5011351;28;19920;-54
2022/11/15 02:52:27;;;;;;;;;;;9.70;71.30;;;4.85;100.00;95296.41;4995345;28;20312;-49
2022/11/15 02:54:59;;;;;;;;;;;9.70;71.30;;;4.86;100.00;95285.63;5011146;28;20351;-50
2022/11/15 02:57:58;;;;;;;;;;;9.70;71.30;;;4.92;100.00;95283.06;5020170;28;19912;-52
2022/11/15 03:00:24;;;;;;;;;;;9.70;71.30;;;4.90;100.00;95275.41;5019517;28;20012;-52
2022/11/15 03:03:27;;;;;;;;;;;9.80;71.30;;;4.94;100.00;95278.38;4993439;28;19960;-52
2022/11/15 03:06:42;;;;;;;;;;;9.80;71.40;;;5.02;100.00;95278.00;5011981;28;20427;-51
2022/11/15 03:09:32;;;;;;;;;;;9.80;71.40;;;5.05;100.00;95272.25;5028977;28;19920;-51
2022/11/15 03:12:19;;;;;;;;;;;9.80;71.50;;;5.05;100.00;95264.34;5030603;28;19908;-53
2022/11/15 03:15:22;;;;;;;;;;;9.80;71.50;;;5.10;100.00;95261.75;4997557;28;19908;-51
2022/11/15 03:18:04;;;;;;;;;;;9.80;71.50;;;5.09;100.00;95262.81;5000669;28;19909;-53
2022/11/15 03:20:37;;;;;;;;;;;9.90;71.60;;;5.14;100.00;95262.91;5013007;28;20007;-51
2022/11/15 03:23:10;;;;;;;;;;;9.90;71.50;;;5.12;100.00;95243.84;5030252;28;19912;-54
2022/11/15 03:25:47;;;;;;;;;;;9.90;71.60;;;5.16;100.00;95249.44;5013778;28;19917;-55
2022/11/15 03:28:25;;;;;;;;;;;9.90;71.60;;;5.25;100.00;95255.94;5005126;28;19909;-52
2022/11/15 03:30:56;;;;;;;;;;;9.90;72.40;;;5.28;100.00;95256.28;5014015;28;20379;-51
2022/11/15 03:33:22;;;;;;;;;;;10.00;71.70;;;5.28;100.00;95258.91;5013073;28;19920;-50
2022/11/15 03:35:55;;;;;;;;;;;10.00;71.60;;;5.26;100.00;95250.41;5002238;23;20477;-55
2022/11/15 03:38:31;;;;;;;;;;;10.00;71.50;;;5.26;100.00;95252.25;4984886;28;19918;-58
2022/11/15 03:41:27;;;;;;;;;;;10.00;71.40;;;5.24;100.00;95252.50;4980572;28;19913;-58
2022/11/15 03:44:27;;;;;;;;;;;10.00;71.40;;;5.21;100.00;95246.91;4973033;28;20004;-57
2022/11/15 03:47:18;;;;;;;;;;;10.00;71.30;;;5.18;100.00;95242.91;4985764;28;19910;-54
2022/11/15 03:50:14;;;;;;;;;;;10.00;71.30;;;5.15;100.00;95243.38;4967632;28;20372;-53
2022/11/15 03:52:44;;;;;;;;;;;10.00;71.30;;;5.14;100.00;95238.31;4969438;28;20372;-55
2022/11/15 03:55:20;;;;;;;;;;;10.00;71.30;;;5.09;100.00;95231.91;4962398;28;20357;-53
2022/11/15 03:57:55;;;;;;;;;;;9.90;71.20;;;5.09;100.00;95234.56;4964659;28;19925;-54
2022/11/15 04:00:28;;;;;;;;;;;9.90;71.20;;;5.07;100.00;95235.84;4970681;28;19914;-56
2022/11/15 04:02:55;;;;;;;;;;;9.90;71.20;;;5.07;100.00;95247.19;4977189;28;19910;-55
2022/11/15 04:05:23;;;;;;;;;;;9.90;71.30;;;5.04;100.00;95247.66;4959186;28;19913;-56
2022/11/15 04:07:52;;;;;;;;;;;9.90;71.30;;;5.02;100.00;95248.97;4944849;28;19910;-55
2022/11/15 04:10:18;;;;;;;;;;;9.90;71.20;;;5.03;100.00;95250.56;4959605;28;19914;-55
2022/11/15 04:12:47;;;;;;;;;;;9.80;71.10;;;4.98;100.00;95251.28;4972584;28;20584;-57
2022/11/15 04:15:23;;;;;;;;;;;9.80;71.10;;;4.95;100.00;95257.03;4965525;28;19914;-55
2022/11/15 04:17:56;;;;;;;;;;;9.70;71.00;;;4.90;100.00;95254.28;4972702;28;19910;-56
2022/11/15 04:26:20;;;;;;;;;;;9.60;70.90;;;4.68;100.00;95240.16;4965741;28;20379;-57
2022/11/15 04:31:31;;;;;;;;;;;9.40;70.90;;;4.47;100.00;95239.75;4971308;28;20407;-54
2022/11/15 04:33:59;;;;;;;;;;;9.30;70.90;;;4.37;100.00;95240.38;4966634;28;19941;-53
2022/11/15 04:39:19;;;;;;;;;;;9.10;70.90;;;4.16;100.00;95235.72;4959260;28;19940;-57
2022/11/15 04:41:47;;;;;;;;;;;9.00;70.80;;;4.05;100.00;95231.28;4968099;28;19918;-53
2022/11/15 04:44:13;;;;;;;;;;;8.90;70.80;;;3.98;100.00;95235.84;4966430;28;20004;-55
2022/11/15 04:46:39;;;;;;;;;;;8.80;70.90;;;3.83;100.00;95231.06;4965260;28;20008;-54
2022/11/15 04:49:04;;;;;;;;;;;8.80;70.90;;;3.81;100.00;95231.28;4972525;28;20307;-55
2022/11/15 04:51:33;;;;;;;;;;;8.70;71.00;;;3.77;100.00;95230.16;4958550;28;19916;-54
2022/11/15 04:53:59;;;;;;;;;;;8.60;71.00;;;3.70;100.00;95226.84;4972390;28;19910;-55
2022/11/15 04:56:27;;;;;;;;;;;8.60;71.10;;;3.58;100.00;95226.84;4966401;28;19910;-53
2022/11/15 04:58:53;;;;;;;;;;;8.50;71.10;;;3.55;100.00;95218.59;4972047;28;19920;-53
2022/11/15 05:01:19;;;;;;;;;;;8.40;71.10;;;3.51;100.00;95222.69;4954818;28;19910;-53
2022/11/15 05:06:30;;;;;;;;;;;8.30;71.10;;;3.36;100.00;95212.63;4971576;28;20348;-58
2022/11/15 05:08:57;;;;;;;;;;;8.20;71.20;;;3.31;100.00;95217.78;4943731;29;19914;-58
2022/11/15 05:11:27;;;;;;;;;;;8.20;71.30;;;3.30;100.00;95206.44;4968908;28;20318;-57
2022/11/15 05:14:00;;;;;;;;;;;8.10;71.40;;;3.30;100.00;95208.28;4968601;28;19918;-57
2022/11/15 05:16:32;;;;;;;;;;;8.10;71.50;;;3.26;100.00;95202.66;4971280;28;19913;-57
2022/11/15 05:19:00;;;;;;;;;;;8.10;71.50;;;3.17;100.00;95202.19;4972267;28;20276;-58
2022/11/15 05:21:33;;;;;;;;;;;8.00;71.50;;;3.16;100.00;95195.31;4962352;28;20016;-58
2022/11/15 05:24:03;;;;;;;;;;;8.00;71.60;;;3.12;100.00;95194.16;4969866;28;19972;-56
2022/11/15 05:26:32;;;;;;;;;;;8.00;71.60;;;3.07;100.00;95188.81;4946537;28;19910;-57
2022/11/15 05:28:59;;;;;;;;;;;8.00;71.60;;;3.07;100.00;95191.44;4982166;28;19914;-57
2022/11/15 05:31:38;;;;;;;;;;;7.90;71.60;;;3.11;100.00;95181.25;4957726;28;19959;-56
2022/11/15 05:34:05;;;;;;;;;;;7.90;71.70;;;3.12;100.00;95188.09;4970843;28;19910;-57
2022/11/15 05:36:42;;;;;;;;;;;7.90;71.70;;;3.09;100.00;95181.47;4986528;28;19918;-55
2022/11/15 05:39:08;;;;;;;;;;;7.90;71.70;;;3.08;100.00;95182.50;4949489;28;20392;-55
2022/11/15 05:41:50;;;;;;;;;;;7.90;71.70;;;3.09;100.00;95178.03;4970484;28;20004;-54
2022/11/15 05:44:21;;;;;;;;;;;7.90;71.70;;;3.06;100.00;95174.03;4951231;28;19957;-54
2022/11/15 05:46:50;;;;;;;;;;;7.90;71.80;;;3.09;100.00;95178.03;4951440;28;19961;-58
2022/11/15 05:49:23;;;;;;;;;;;7.90;71.80;;;3.07;100.00;95174.81;4970841;28;19914;-58
2022/11/15 05:51:56;;;;;;;;;;;7.90;71.90;;;3.12;100.00;95177.59;4943542;28;19911;-54
2022/11/15 05:54:28;;;;;;;;;;;7.90;71.90;;;3.16;100.00;95169.00;4982746;28;19914;-56
2022/11/15 05:56:55;;;;;;;;;;;8.00;72.00;;;3.17;100.00;95170.63;4959806;28;20005;-55
2022/11/15 05:59:21;;;;;;;;;;;8.00;72.00;;;3.19;100.00;95173.00;4952380;28;19914;-51
2022/11/15 06:01:47;;;;;;;;;;;8.00;72.00;;;3.15;100.00;95174.50;4968584;28;19910;-55
2022/11/15 06:04:15;;;;;;;;;;;8.00;72.00;;;3.21;100.00;95177.00;4952236;28;20320;-55
2022/11/15 06:06:50;;;;;;;;;;;8.00;72.00;;;3.21;100.00;95173.59;4954384;28;20005;-56
2022/11/15 06:09:18;;;;;;;;;;;8.10;72.10;;;3.23;100.00;95172.34;4945912;28;19938;-55
2022/11/15 06:11:47;;;;;;;;;;;8.00;72.00;;;3.28;100.00;95178.75;4955321;28;19917;-57
2022/11/15 06:14:13;;;;;;;;;;;8.10;72.10;;;3.32;100.00;95175.44;4949987;28;19910;-53
2022/11/15 06:16:39;;;;;;;;;;;8.10;72.90;;;3.34;100.00;95175.19;4946543;28;19917;-53
2022/11/15 06:19:06;;;;;;;;;;;8.20;72.10;;;3.33;100.00;95176.22;4955449;28;19910;-56
2022/11/15 06:21:35;;;;;;;;;;;8.20;72.00;;;3.36;100.00;95170.50;4950597;28;19914;-53
2022/11/15 06:24:01;;;;;;;;;;;8.20;71.90;;;3.36;100.00;95171.31;4962667;28;20362;-55
2022/11/15 06:26:33;;;;;;;;;;;8.20;71.90;;;3.37;100.00;95167.63;4942204;28;19931;-54
2022/11/15 06:28:59;;;;;;;;;;;8.30;71.90;;;3.40;100.00;95169.00;4958395;28;20016;-57
2022/11/15 06:31:25;;;;;;;;;;;8.30;71.90;;;3.39;100.00;95176.13;4951153;28;20005;-55
2022/11/15 06:33:50;;;;;;;;;;;8.30;71.80;;;3.41;100.00;95178.50;4938306;28;19918;-57
2022/11/15 06:36:17;;;;;;;;;;;8.30;71.80;;;3.41;100.00;95174.03;4943961;28;19918;-54
2022/11/15 06:38:47;;;;;;;;;;;8.30;71.80;;;3.46;100.00;95173.38;4973446;28;19909;-59
2022/11/15 06:41:14;;;;;;;;;;;8.40;71.90;;;3.51;100.00;95164.75;4960862;28;19964;-56
2022/11/15 06:43:41;;;;;;;;;;;8.50;71.90;;;3.53;100.00;95167.97;4969247;28;19910;-54
2022/11/15 06:46:07;;;;;;;;;;;8.50;71.80;;;3.59;100.00;95174.97;4948123;28;19916;-57
2022/11/15 06:48:34;;;;;;;;;;;8.60;71.80;;;3.64;100.00;95170.59;4965033;28;20029;-53
2022/11/15 06:51:03;;;;;;;;;;;8.60;71.70;;;3.69;100.00;95181.22;4943655;28;19914;-53
2022/11/15 06:53:30;;;;;;;;;;;8.70;71.80;;;3.77;100.00;95182.72;4967974;28;19910;-54
2022/11/15 06:56:02;;;;;;;;;;;8.80;71.80;;;3.86;100.00;95183.19;4980892;28;19916;-57
2022/11/15 06:58:28;;;;;;;;;;;8.90;71.80;;;3.98;100.00;95172.59;4952728;28;20377;-56
2022/11/15 07:01:04;;;;;;;;;;;9.00;71.80;;;4.07;100.00;95168.56;4952430;28;19964;-54
2022/11/15 07:03:30;;;;;;;;;;;9.10;71.70;;;4.18;100.00;95165.09;4947481;28;20284;-57
2022/11/15 07:05:57;;;;;;;;;;;9.30;71.70;;;4.29;100.00;95166.09;4951584;28;19910;-56
2022/11/15 07:08:27;;;;;;;;;;;9.40;71.60;;;4.40;100.00;95163.41;4959444;28;19970;-55
2022/11/15 07:11:05;;;;;;;;;;;9.50;71.70;;;4.55;100.00;95156.84;4981632;28;19968;-53
2022/11/15 07:13:35;;;;;;;;;;;9.60;71.60;;;4.68;100.00;95159.16;4968185;28;19960;-54
2022/11/15 07:16:10;;;;;;;;;;;9.70;71.50;;;4.79;100.00;95166.19;4956974;28;19951;-54
2022/11/15 07:18:40;;;;;;;;;;;9.80;71.60;;;4.88;100.00;95162.13;4972502;28;20434;-53
2022/11/15 07:21:10;;;;;;;;;;;9.90;71.50;;;5.02;100.00;95156.56;4963259;28;19914;-54
2022/11/15 07:23:40;;;;;;;;;;;10.00;71.50;;;5.14;100.00;95164.38;4968847;28;19960;-54
2022/11/15 07:26:07;;;;;;;;;;;10.20;71.40;;;5.24;100.00;95175.13;4958749;28;19914;-55
2022/11/15 07:28:36;;;;;;;;;;;10.30;71.40;;;5.30;100.00;95166.25;4971189;28;19919;-52
2022/11/15 07:31:12;;;;;;;;;;;10.40;71.30;;;5.40;100.00;95171.69;4968895;28;19917;-54
2022/11/15 07:33:41;;;;;;;;;;;10.50;71.10;;;5.48;100.00;95163.31;4966988;28;19914;-53
2022/11/15 07:36:08;;;;;;;;;;;10.60;71.00;;;5.56;100.00;95167.41;4939923;28;19918;-58
2022/11/15 07:38:35;;;;;;;;;;;10.70;70.90;;;5.62;100.00;95163.81;4941023;28;20285;-57
2022/11/15 07:41:08;;;;;;;;;;;10.80;70.80;;;5.71;100.00;95164.19;4944179;28;19910;-52
2022/11/15 07:43:35;;;;;;;;;;;10.90;70.70;;;5.75;100.00;95163.44;4950977;28;19910;-57
2022/11/15 07:46:09;;;;;;;;;;;11.00;70.60;;;5.85;100.00;95165.41;4940828;28;19910;-53
2022/11/15 07:48:36;;;;;;;;;;;11.10;70.60;;;5.90;100.00;95170.78;4961046;28;19918;-56
2022/11/15 07:51:04;;;;;;;;;;;11.20;70.50;;;5.94;100.00;95176.41;4958015;28;19918;-54
2022/11/15 07:53:34;;;;;;;;;;;11.20;70.30;;;5.99;100.00;95177.28;4934286;29;19910;-57
2022/11/15 07:55:59;;;;;;;;;;;11.30;70.20;;;6.05;100.00;95172.84;4950594;28;19914;-56
2022/11/15 07:58:25;;;;;;;;;;;11.40;70.10;;;6.15;100.00;95174.81;4949603;28;19920;-55
2022/11/15 08:00:54;;;;;;;;;;;11.50;70.00;;;6.23;100.00;95167.22;4963887;28;19920;-53
2022/11/15 08:03:26;;;;;;;;;;;11.70;70.00;;;6.38;100.00;95165.81;4942728;28;19914;-57
2022/11/15 08:05:52;;;;;;;;;;;11.80;69.80;;;6.54;100.00;95166.78;4950964;28;19914;-56
2022/11/15 08:08:19;;;;;;;;;;;12.10;69.70;;;6.66;100.00;95162.94;4963149;28;19957;-57
2022/11/15 08:10:50;;;;;;;;;;;12.30;69.60;;;6.79;100.00;95159.09;4959752;28;19910;-55
2022/11/15 08:13:22;;;;;;;;;;;12.40;69.40;;;6.86;100.00;95149.13;4952461;28;19910;-57
2022/11/15 08:15:51;;;;;;;;;;;12.50;69.30;;;7.01;100.00;95150.28;4963706;28;19910;-56
2022/11/15 08:18:26;;;;;;;;;;;12.70;69.20;;;7.08;100.00;95141.09;4967341;28;19917;-56
2022/11/15 08:21:03;;;;;;;;;;;12.80;69.00;;;7.19;99.46;95145.41;4943379;28;20403;-57
2022/11/15 08:23:31;;;;;;;;;;;12.90;68.90;;;7.27;94.44;95149.44;4967950;28;20377;-55
2022/11/15 08:26:04;;;;;;;;;;;13.10;69.50;;;7.51;97.03;95141.13;4950266;28;20357;-56
2022/11/15 08:28:33;;;;;;;;;;;13.30;68.70;;;7.71;95.10;95141.25;4933943;29;20385;-57
2022/11/15 08:30:59;;;;;;;;;;;13.50;68.60;;;7.96;96.38;95143.22;4967601;28;20020;-58
2022/11/15 08:33:28;;;;;;;;;;;13.80;68.50;;;8.17;91.40;95140.66;4951452;29;19960;-58
2022/11/15 08:36:03;;;;;;;;;;;14.10;68.30;;;8.48;90.22;95138.94;4965362;28;19968;-56
2022/11/15 08:38:30;;;;;;;;;;;14.50;68.10;;;8.68;87.73;95143.47;4945921;29;19933;-56
2022/11/15 08:41:13;;;;;;;;;;;14.70;67.80;;;8.92;85.42;95138.47;4984336;28;19953;-56
2022/11/15 08:43:42;;;;;;;;;;;14.90;67.60;;;9.19;84.64;95138.22;4967640;28;19910;-58
2022/11/15 08:46:13;;;;;;;;;;;15.30;67.40;;;9.55;81.25;95143.50;4951650;28;20468;-56
2022/11/15 08:48:39;;;;;;;;;;;15.70;67.00;;;9.72;76.79;95130.72;4935339;29;19945;-58
2022/11/15 08:51:06;;;;;;;;;;;16.00;66.50;;;9.96;79.22;95139.72;4937550;29;19941;-58
2022/11/15 08:53:31;;;;;;;;;;;16.20;66.20;;;10.06;74.41;95136.22;4955806;28;19914;-54
2022/11/15 08:55:57;;;;;;;;;;;16.30;65.90;;;10.19;76.12;95137.50;4934903;29;20274;-57
2022/11/15 08:58:26;;;;;;;;;;;16.40;65.60;;;10.33;76.06;95129.72;4965548;28;19914;-55
2022/11/15 09:00:52;;;;;;;;;;;16.50;65.30;;;10.46;74.64;95133.66;4933979;29;19969;-58
2022/11/15 09:03:23;;;;;;;;;;;16.60;65.20;;;10.51;75.12;95134.44;4943812;28;19918;-56
2022/11/15 09:06:03;;;;;;;;;;;16.60;64.90;;;10.56;72.78;95137.09;4934514;29;19910;-57
2022/11/15 09:08:31;;;;;;;;;;;16.70;64.60;;;10.54;75.93;95136.56;4935403;28;19910;-55
2022/11/15 09:10:58;;;;;;;;;;;16.70;64.40;;;10.52;78.26;95136.03;4937731;28;20388;-57
2022/11/15 09:13:24;;;;;;;;;;;16.80;64.10;;;10.55;77.50;95138.13;4959722;28;19960;-56
2022/11/15 09:19:01;;;;;;;;;;;16.70;63.60;;;10.66;75.66;95149.56;4954587;28;19914;-56
2022/11/15 09:21:29;;;;;;;;;;;16.70;63.50;;;10.52;74.67;95137.91;4962962;28;20395;-57
2022/11/15 09:23:55;;;;;;;;;;;16.70;63.30;;;10.42;76.26;95141.41;4955402;28;19977;-57
2022/11/15 09:26:21;;;;;;;;;;;16.70;63.10;;;10.46;78.23;95155.75;4965877;28;20376;-53
2022/11/15 09:28:47;;;;;;;;;;;16.70;62.90;;;10.45;77.47;95153.38;4952785;28;20010;-57
2022/11/15 09:31:13;;;;;;;;;;;16.70;62.80;;;10.57;78.53;95154.66;4981532;28;19909;-56
2022/11/15 09:33:51;;;;;;;;;;;16.70;62.80;;;10.34;78.50;95152.63;4948022;28;20377;-56
2022/11/15 09:36:20;;;;;;;;;;;16.80;62.80;;;10.14;76.61;95159.59;4992511;23;19921;-53
2022/11/15 09:38:47;;;;;;;;;;;16.70;62.50;;;10.05;75.28;95157.75;4995948;28;19918;-52
2022/11/15 09:41:30;;;;;;;;;;;16.60;62.30;;;10.16;75.87;95149.47;5007422;28;20254;-51
2022/11/15 09:44:47;;;;;;;;;;;16.50;62.30;;;10.27;74.79;95149.47;5010700;28;19955;-52
2022/11/15 09:48:00;;;;;;;;;;;16.40;62.40;;;10.39;69.55;95149.94;5007398;28;19909;-48
2022/11/15 09:50:49;;;;;;;;;;;16.40;62.40;;;10.47;70.55;95145.94;5012701;28;19916;-48
2022/11/15 09:53:49;;;;;;;;;;;16.40;62.40;;;10.56;71.08;95152.25;4983008;28;19944;-53
2022/11/15 09:56:31;;;;;;;;;;;16.40;62.30;;;10.59;71.25;95139.19;5003745;28;19909;-49
2022/11/15 09:59:18;;;;;;;;;;;16.40;62.30;;;10.64;70.41;95146.34;4995472;28;19913;-51
2022/11/15 10:02:48;;;;;;;;;;;16.50;62.20;;;10.62;71.44;95140.50;4995617;28;19928;-51
2022/11/15 10:05:23;;;;;;;;;;;16.50;62.10;;;10.60;73.61;95145.31;4996601;28;20007;-51
2022/11/15 10:07:56;;;;;;;;;;;16.40;61.90;;;10.51;74.33;95146.97;4992054;28;19913;-56
2022/11/15 10:10:49;;;;;;;;;;;16.40;61.90;;;10.50;75.01;95135.53;4989542;28;19921;-51
2022/11/15 10:13:31;;;;;;;;;;;16.40;61.70;;;10.53;76.91;95128.81;4993837;28;20430;-47
2022/11/15 10:16:59;;;;;;;;;;;16.40;61.80;;;10.58;78.66;95132.25;4992369;28;19913;-48
2022/11/15 10:19:57;;;;;;;;;;;16.50;61.70;;;10.73;77.01;95128.72;5007517;28;19909;-53
2022/11/15 10:23:13;;;;;;;;;;;16.60;62.60;;;10.77;75.18;95123.63;4996986;28;20299;-52
2022/11/15 10:25:46;;;;;;;;;;;16.80;61.70;;;10.85;73.39;95113.19;4989162;28;19909;-57
2022/11/15 10:28:28;;;;;;;;;;;16.90;61.40;;;10.99;73.34;95112.56;4994465;28;20260;-47
2022/11/15 10:31:04;;;;;;;;;;;17.00;61.30;;;11.08;72.56;95110.88;5012721;28;19913;-50
2022/11/15 10:33:35;;;;;;;;;;;17.10;61.10;;;11.03;71.22;95101.06;5002640;28;20088;-48
2022/11/15 10:36:13;;;;;;;;;;;17.20;61.00;;;11.13;70.82;95099.41;5010820;28;20390;-56
2022/11/15 10:38:50;;;;;;;;;;;17.20;60.80;;;11.18;70.63;95089.47;5009731;28;19913;-54
2022/11/15 10:41:29;;;;;;;;;;;17.30;60.70;;;11.30;70.48;95099.78;4993671;28;19916;-49
2022/11/15 10:44:19;;;;;;;;;;;17.30;60.60;;;11.29;71.46;95104.31;5011197;28;19999;-51
2022/11/15 10:46:55;;;;;;;;;;;17.40;60.50;;;11.31;70.74;95104.84;4999334;28;19909;-47
2022/11/15 10:49:29;;;;;;;;;;;17.40;60.30;;;11.27;71.85;95101.13;5010027;28;19921;-48
2022/11/15 10:52:19;;;;;;;;;;;17.40;60.10;;;11.24;72.97;95106.22;4992734;28;20015;-47
2022/11/15 10:55:31;;;;;;;;;;;17.30;59.90;;;11.16;74.46;95101.50;4994444;28;19909;-49
2022/11/15 10:58:43;;;;;;;;;;;17.20;59.90;;;11.13;75.22;95102.88;5004902;28;19909;-52
2022/11/15 11:01:17;;;;;;;;;;;17.10;59.90;;;11.10;75.85;95104.22;4987836;28;19952;-49
2022/11/15 11:03:58;;;;;;;;;;;17.00;59.90;;;11.02;76.81;95098.66;4986951;28;20305;-47
2022/11/15 11:06:25;;;;;;;;;;;16.90;60.00;;;11.07;76.55;95085.31;4988820;28;19909;-49
2022/11/15 11:09:05;;;;;;;;;;;16.90;60.00;;;11.12;77.09;95085.25;4991487;28;19944;-49
2022/11/15 11:11:50;;;;;;;;;;;16.90;60.10;;;11.22;77.46;95093.19;5008574;28;19934;-54
2022/11/15 11:14:30;;;;;;;;;;;16.90;60.10;;;11.22;78.57;95079.03;5005480;28;19913;-47
2022/11/15 11:17:11;;;;;;;;;;;16.90;60.20;;;11.26;78.25;95077.44;5007721;28;20012;-52
2022/11/15 11:20:10;;;;;;;;;;;17.00;60.30;;;11.11;79.18;95071.13;5007351;28;19928;-50
2022/11/15 11:23:10;;;;;;;;;;;17.00;60.30;;;11.15;79.21;95070.56;4973652;28;19909;-51
2022/11/15 11:25:48;;;;;;;;;;;17.10;60.10;;;11.32;78.50;95055.75;5008795;28;20505;-51
2022/11/15 11:29:17;;;;;;;;;;;17.20;60.30;;;11.40;78.52;95054.34;5010153;28;19909;-50
2022/11/15 11:32:15;;;;;;;;;;;17.30;60.20;;;11.46;76.85;95039.88;5010279;28;19917;-49
2022/11/15 11:35:24;;;;;;;;;;;17.40;60.10;;;11.47;78.52;95027.34;5009439;28;19915;-52
2022/11/15 11:38:09;;;;;;;;;;;17.50;60.00;;;11.56;76.77;95030.97;4980401;28;19921;-54
2022/11/15 11:41:09;;;;;;;;;;;17.50;59.90;;;11.64;78.44;95025.03;4988563;28;20336;-48
2022/11/15 11:43:51;;;;;;;;;;;17.60;59.90;;;11.83;77.80;95014.41;4975477;28;20280;-47
2022/11/15 11:46:42;;;;;;;;;;;17.70;59.90;;;11.92;77.67;95025.25;4989468;28;20307;-46
2022/11/15 11:49:35;;;;;;;;;;;17.80;59.90;;;11.99;74.95;95012.34;4972802;28;20484;-46
2022/11/15 11:52:13;;;;;;;;;;;17.80;59.80;;;12.07;75.43;94995.72;4988420;28;19913;-54
2022/11/15 11:55:19;;;;;;;;;;;17.90;59.70;;;12.09;75.62;94987.41;4973191;28;19916;-49
2022/11/15 11:58:19;;;;;;;;;;;17.90;59.60;;;11.98;76.27;94981.41;4971966;28;19960;-48
2022/11/15 12:01:43;;;;;;;;;;;17.90;59.50;;;11.75;75.57;94986.50;4989667;28;20371;-50
2022/11/15 12:04:15;;;;;;;;;;;17.90;59.50;;;11.85;74.93;94982.13;4940937;28;19918;-48
2022/11/15 12:07:29;;;;;;;;;;;17.90;59.50;;;12.04;75.08;94973.06;4949844;28;19925;-48
2022/11/15 12:10:24;;;;;;;;;;;17.90;59.40;;;12.13;74.82;94967.88;4861570;29;19924;-52
2022/11/15 12:13:13;;;;;;;;;;;17.90;59.40;;;12.07;73.47;94955.66;4950631;28;20396;-50
2022/11/15 12:16:24;;;;;;;;;;;18.00;59.40;;;12.14;72.60;94949.97;4960336;28;20004;-53
2022/11/15 12:18:54;;;;;;;;;;;18.00;59.40;;;12.19;73.51;94945.34;4969448;28;19964;-51
2022/11/15 12:21:54;;;;;;;;;;;18.00;59.30;;;12.28;72.33;94937.44;4938126;28;19917;-55